»·PEaware :: N107BS KSAC-KSQL

N107BS :: KSAC-KSQL

FLIGHT INFORMATION

Flight Status: Arrived
Operator: Privately registered:
United States
More flights under this callsign
Pilot: Anonymous 18373 (18373)
Aircraft: CESSNA 208 CARAVAN
(C208)
More flights by this aircraft type
Origin: KSAC Sacramento Executive
United States
Destination: KSQL San Carlos
United States
More flights between these airports :: More routes between these airports
Route: + SQL
File this flight plan on PilotEdge
Remarks: no STAR please
Altitude:
(Current/Filed)
6,000ft
Speed:
(Current/Filed)
130kts
Departed: 21-Aug-18 05:31 PM
Arrived: 21-Aug-18 06:58 PM
Distance/Time
Traveled:
70nm/1:27
Distance/Time
To Go:
Arrived

Flight Plot

Page will automatically refresh every two minutes.

Flight plan parsing failed; only flown route is shown


Map Options




Map Legend


Flown Route
Filed Route
Departure Airport
Arrival Airport
Navaid (VOR, NDB)
Fix

Horizontal Profiles

Position Reports

Time Latitude Longitude Heading Altitude Ground
Speed
21-Aug-18 16:46 38.514778 -121.499565 137 24ft 0kts
21-Aug-18 16:47 38.514778 -121.499565 137 24ft 0kts
21-Aug-18 16:48 38.514778 -121.499565 137 24ft 0kts
21-Aug-18 16:49 38.514778 -121.499565 137 24ft 0kts
21-Aug-18 16:50 38.514778 -121.499565 137 24ft 0kts
21-Aug-18 16:51 38.514778 -121.499565 137 24ft 0kts
21-Aug-18 16:52 38.514778 -121.499565 137 24ft 0kts
21-Aug-18 16:53 38.514778 -121.499565 137 24ft 0kts
21-Aug-18 16:54 38.514778 -121.499565 137 24ft 0kts
21-Aug-18 16:55 38.514778 -121.499565 137 24ft 0kts
21-Aug-18 16:56 38.514778 -121.499565 137 24ft 0kts
21-Aug-18 16:57 38.514778 -121.499565 137 24ft 0kts
21-Aug-18 16:58 38.514778 -121.499565 137 24ft 0kts
21-Aug-18 16:59 38.514778 -121.499565 137 24ft 0kts
21-Aug-18 17:00 38.514778 -121.499565 137 24ft 0kts
21-Aug-18 17:01 38.514778 -121.499565 137 24ft 0kts
21-Aug-18 17:02 38.514778 -121.499565 137 24ft 0kts
21-Aug-18 17:03 38.514778 -121.499565 137 24ft 0kts
21-Aug-18 17:04 38.514778 -121.499565 137 24ft 0kts
21-Aug-18 17:05 38.514778 -121.499565 137 24ft 0kts
21-Aug-18 17:06 38.514778 -121.499565 137 24ft 0kts
21-Aug-18 17:07 38.514778 -121.499565 137 24ft 0kts
21-Aug-18 17:08 38.514778 -121.499565 137 24ft 0kts
21-Aug-18 17:09 38.514778 -121.499565 137 24ft 0kts
21-Aug-18 17:10 38.514778 -121.499565 137 24ft 0kts
21-Aug-18 17:11 38.514778 -121.499565 137 24ft 0kts
21-Aug-18 17:12 38.514778 -121.499565 137 24ft 0kts
21-Aug-18 17:13 38.514778 -121.499565 137 24ft 0kts
21-Aug-18 17:14 38.514778 -121.499565 137 24ft 0kts
21-Aug-18 17:15 38.514778 -121.499565 137 24ft 0kts
21-Aug-18 17:16 38.514778 -121.499565 137 24ft 0kts
21-Aug-18 17:17 38.514778 -121.499565 137 24ft 0kts
21-Aug-18 17:18 38.514778 -121.499565 137 24ft 0kts
21-Aug-18 17:19 38.514778 -121.499565 137 24ft 0kts
21-Aug-18 17:20 38.514778 -121.499565 137 24ft 0kts
21-Aug-18 17:21 38.514858 -121.499069 67 23ft 6kts
21-Aug-18 17:22 38.513924 -121.496912 109 22ft 10kts
21-Aug-18 17:23 38.514833 -121.494387 34 22ft 22kts
21-Aug-18 17:24 38.519001 -121.490987 29 25ft 10kts
21-Aug-18 17:25 38.519396 -121.490550 71 25ft 8kts
21-Aug-18 17:26 38.519407 -121.490455 98 25ft 0kts
21-Aug-18 17:27 38.519407 -121.490455 98 25ft 0kts
21-Aug-18 17:28 38.519407 -121.490455 98 25ft 0kts
21-Aug-18 17:29 38.519407 -121.490455 98 25ft 0kts
21-Aug-18 17:30 38.519407 -121.490455 98 25ft 0kts
21-Aug-18 17:31 38.519407 -121.490455 98 25ft 0kts
21-Aug-18 17:32 38.516128 -121.491645 215 22ft 58kts
21-Aug-18 17:33 38.499402 -121.512333 274 803ft 101kts
21-Aug-18 17:34 38.497421 -121.548470 263 1636ft 126kts
21-Aug-18 17:35 38.493242 -121.596447 263 2068ft 150kts
21-Aug-18 17:36 38.488950 -121.645789 264 2847ft 136kts
21-Aug-18 17:37 38.463893 -121.671330 182 3634ft 131kts
21-Aug-18 17:38 38.435254 -121.678540 198 4279ft 130kts
21-Aug-18 17:39 38.402792 -121.695019 204 5160ft 123kts
21-Aug-18 17:40 38.372498 -121.713146 206 5995ft 123kts
21-Aug-18 17:41 38.341727 -121.732309 206 6030ft 148kts
21-Aug-18 17:42 38.304046 -121.756018 206 6029ft 153kts
21-Aug-18 17:43 38.265893 -121.780122 206 6028ft 153kts
21-Aug-18 17:44 38.227569 -121.804306 206 6028ft 153kts
21-Aug-18 17:45 38.189272 -121.828386 206 6028ft 154kts
21-Aug-18 17:46 38.151100 -121.852362 206 5994ft 155kts
21-Aug-18 17:47 38.112794 -121.876401 206 5992ft 154kts
21-Aug-18 17:48 38.075277 -121.899926 206 5992ft 154kts
21-Aug-18 17:49 38.038790 -121.922779 206 5992ft 154kts
21-Aug-18 17:50 38.001968 -121.945819 206 5992ft 154kts
21-Aug-18 17:51 37.967145 -121.967567 206 5992ft 154kts
21-Aug-18 17:52 37.929515 -121.990891 206 5992ft 154kts
21-Aug-18 17:53 37.891428 -122.014567 206 5992ft 154kts
21-Aug-18 17:54 37.854413 -122.037607 206 5992ft 154kts
21-Aug-18 17:55 37.826508 -122.054971 206 5992ft 154kts
21-Aug-18 17:56 37.794453 -122.074901 206 5667ft 165kts
21-Aug-18 17:57 37.755508 -122.098475 203 5197ft 166kts
21-Aug-18 17:58 37.726734 -122.113473 202 5090ft 154kts
21-Aug-18 17:59 37.692036 -122.131093 201 5091ft 144kts
21-Aug-18 18:00 37.651792 -122.151482 201 5092ft 142kts
21-Aug-18 18:01 37.624819 -122.165129 201 5092ft 142kts
21-Aug-18 18:02 37.593313 -122.181055 201 5092ft 142kts
21-Aug-18 18:03 37.562953 -122.196373 201 5092ft 142kts
21-Aug-18 18:04 37.532066 -122.212108 202 5092ft 142kts
21-Aug-18 18:05 37.499483 -122.228390 201 5092ft 135kts
21-Aug-18 18:06 37.465839 -122.245253 201 5092ft 134kts
21-Aug-18 18:07 37.432038 -122.262205 201 5091ft 132kts
21-Aug-18 18:08 37.399435 -122.278288 190 5090ft 123kts
21-Aug-18 18:09 37.375692 -122.253368 128 5092ft 119kts
21-Aug-18 18:10 37.352962 -122.217362 127 5092ft 118kts
21-Aug-18 18:11 37.337185 -122.191782 131 5094ft 117kts
21-Aug-18 18:12 37.318091 -122.162334 123 5093ft 117kts
21-Aug-18 18:13 37.306506 -122.131952 47 4849ft 125kts
21-Aug-18 18:14 37.326915 -122.110263 32 4475ft 132kts
21-Aug-18 18:15 37.346890 -122.089612 41 4055ft 118kts
21-Aug-18 18:16 37.362402 -122.071014 40 3886ft 99kts
21-Aug-18 18:17 37.378762 -122.071937 318 3776ft 104kts
21-Aug-18 18:18 37.394563 -122.091959 311 3333ft 113kts
21-Aug-18 18:19 37.410682 -122.114269 311 2822ft 116kts
21-Aug-18 18:20 37.427036 -122.136141 316 2286ft 112kts
21-Aug-18 18:21 37.442777 -122.157613 309 1768ft 113kts
21-Aug-18 18:22 37.458914 -122.177270 312 1352ft 111kts
21-Aug-18 18:23 37.473912 -122.198196 312 1010ft 110kts
21-Aug-18 18:24 37.489235 -122.219651 313 904ft 111kts
21-Aug-18 18:25 37.504347 -122.240064 308 910ft 109kts
21-Aug-18 18:26 37.520962 -122.259887 327 1424ft 117kts
21-Aug-18 18:27 37.537181 -122.282019 274 2022ft 129kts
21-Aug-18 18:28 37.514262 -122.286463 154 2447ft 135kts
21-Aug-18 18:29 37.501589 -122.257632 110 2793ft 142kts
21-Aug-18 18:30 37.479677 -122.237386 146 3152ft 143kts
21-Aug-18 18:31 37.460727 -122.211222 118 3505ft 143kts
21-Aug-18 18:32 37.447125 -122.179810 121 3859ft 143kts
21-Aug-18 18:33 37.431392 -122.151577 125 4203ft 143kts
21-Aug-18 18:34 37.413200 -122.126285 138 4546ft 142kts
21-Aug-18 18:35 37.399157 -122.098729 118 4872ft 142kts
21-Aug-18 18:36 37.385063 -122.072192 129 5195ft 139kts
21-Aug-18 18:37 37.369871 -122.049464 130 5395ft 130kts
21-Aug-18 18:38 37.356170 -122.028947 129 5401ft 125kts
21-Aug-18 18:39 37.335917 -122.031801 250 5050ft 126kts
21-Aug-18 18:40 37.349794 -122.051218 354 4533ft 115kts
21-Aug-18 18:41 37.371229 -122.056914 312 4019ft 108kts
21-Aug-18 18:42 37.366012 -122.079516 180 3448ft 105kts
21-Aug-18 18:43 37.350869 -122.064570 129 2974ft 105kts
21-Aug-18 18:44 37.339310 -122.046967 129 2543ft 106kts
21-Aug-18 18:45 37.331761 -122.028389 76 2132ft 106kts
21-Aug-18 18:46 37.344241 -122.020690 327 1992ft 78kts
21-Aug-18 18:47 37.355343 -122.037198 309 2008ft 111kts
21-Aug-18 18:48 37.370160 -122.056722 313 2003ft 121kts
21-Aug-18 18:49 37.386346 -122.078645 312 2000ft 118kts
21-Aug-18 18:50 37.401130 -122.098906 312 2000ft 107kts
21-Aug-18 18:51 37.415682 -122.118858 312 2001ft 103kts
21-Aug-18 18:52 37.430170 -122.138438 313 2002ft 102kts
21-Aug-18 18:53 37.445113 -122.158689 312 1841ft 106kts
21-Aug-18 18:54 37.459747 -122.178677 312 1362ft 104kts
21-Aug-18 18:55 37.472389 -122.196002 312 936ft 85kts
21-Aug-18 18:56 37.483336 -122.212436 303 636ft 91kts
21-Aug-18 18:57 37.494379 -122.230081 314 378ft 92kts
21-Aug-18 18:58 37.508039 -122.245171 318 67ft 82kts
21-Aug-18 18:59 37.513947 -122.251831 317 9ft 22kts

Navigation Log

Ident Type
Flight plan parsing failed, navigation log unavailable